Time;durP1;ratioP1;P1;durP2;ratioP2;P2;SDS_P1;SDS_P2;PMS_P1;PMS_P2;Temp;Humidity;BMP_temperature;BMP_pressure;BME280_temperature;BME280_humidity;BME280_pressure;Samples;Min_cycle;Max_cycle;Signal;HPM_P1;HPM_P2
2023/04/02 00:01:35;;;;;;;8.70;8.30;;;;;;;7.86;68.74;91924.22;5112184;28;20231;-74
2023/04/02 00:04:02;;;;;;;7.73;7.43;;;;;;;7.81;71.03;91926.88;5113515;28;20183;-74
2023/04/02 00:06:38;;;;;;;8.43;8.13;;;;;;;7.69;71.56;91927.25;5112073;27;20255;-74
2023/04/02 00:09:13;;;;;;;8.50;8.10;;;;;;;7.81;69.55;91935.41;5112150;28;20176;-75
2023/04/02 00:11:42;;;;;;;8.83;8.53;;;;;;;7.73;69.90;91936.06;5112303;28;20226;-74
2023/04/02 00:14:22;;;;;;;8.27;7.97;;;;;;;7.74;69.28;91932.41;5111468;28;20198;-74
2023/04/02 00:16:48;;;;;;;8.10;7.87;;;;;;;7.47;70.05;91918.44;5112551;28;20196;-74
2023/04/02 00:19:24;;;;;;;8.73;8.30;;;;;;;7.74;69.39;91947.97;5112713;28;20204;-74
2023/04/02 00:21:51;;;;;;;8.77;8.47;;;;;;;7.85;67.82;91918.25;5110714;28;20247;-75
2023/04/02 00:24:21;;;;;;;8.20;8.00;;;;;;;8.25;65.42;91937.75;5111200;28;20192;-74
2023/04/02 00:26:51;;;;;;;7.87;7.60;;;;;;;8.23;63.40;91887.09;5093978;28;20189;-74
2023/04/02 00:29:17;;;;;;;8.30;8.10;;;;;;;8.37;63.51;91919.16;5092605;28;20228;-74
2023/04/02 00:31:46;;;;;;;7.97;7.67;;;;;;;8.24;64.29;91909.44;5092098;28;20216;-75
2023/04/02 00:34:18;;;;;;;8.30;8.00;;;;;;;7.96;66.73;91911.88;5092779;28;20215;-74
2023/04/02 00:36:45;;;;;;;8.10;7.80;;;;;;;7.75;67.03;91883.81;5091174;28;20243;-75
2023/04/02 00:39:23;;;;;;;8.30;8.00;;;;;;;7.77;69.14;91905.84;5092001;28;20180;-75
2023/04/02 00:41:53;;;;;;;9.13;8.83;;;;;;;8.02;67.60;91905.56;5110925;28;20228;-74
2023/04/02 00:44:20;;;;;;;8.83;8.53;;;;;;;8.04;64.34;91894.88;5110372;27;20190;-74
2023/04/02 00:46:48;;;;;;;8.63;8.27;;;;;;;8.51;61.89;91910.38;5111951;28;20268;-75
2023/04/02 00:49:30;;;;;;;8.60;8.30;;;;;;;8.40;61.96;91913.38;5108982;28;20204;-75
2023/04/02 00:51:59;;;;;;;8.10;7.80;;;;;;;8.33;63.92;91920.78;5111265;28;20232;-75
2023/04/02 00:54:28;;;;;;;8.50;8.20;;;;;;;8.13;65.21;91912.16;5110231;28;20242;-74
2023/04/02 00:56:55;;;;;;;7.63;7.23;;;;;;;8.07;68.40;91902.09;5091087;28;20244;-74
2023/04/02 00:59:27;;;;;;;9.03;8.73;;;;;;;7.90;67.81;91907.78;5090108;28;20197;-75
2023/04/02 01:02:00;;;;;;;8.17;7.87;;;;;;;7.99;65.90;91913.91;5090737;28;20618;-80
2023/04/02 01:04:33;;;;;;;8.17;7.93;;;;;;;8.04;65.91;91906.06;5091472;28;20177;-75
2023/04/02 01:07:05;;;;;;;8.63;8.33;;;;;;;8.10;65.17;91897.13;5110951;28;20235;-76
2023/04/02 01:09:54;;;;;;;8.57;8.27;;;;;;;8.16;66.03;91918.63;5110067;28;20192;-76
2023/04/02 01:13:04;;;;;;;8.67;8.37;;;;;;;8.11;66.16;91901.25;5111279;28;20203;-76
2023/04/02 01:15:40;;;;;;;8.23;7.87;;;;;;;8.22;65.38;91912.28;5100381;28;20228;-76
2023/04/02 01:18:49;;;;;;;8.27;7.97;;;;;;;8.20;66.32;91911.81;5110554;28;20208;-76
2023/04/02 01:21:20;;;;;;;9.07;8.77;;;;;;;8.11;66.68;91903.88;5057186;28;20253;-75
2023/04/02 01:24:11;;;;;;;9.13;8.83;;;;;;;8.08;66.30;91901.81;5110646;28;20184;-75
2023/04/02 01:27:01;;;;;;;8.33;8.03;;;;;;;8.22;66.02;91927.13;5110849;27;20273;-72
2023/04/02 01:29:37;;;;;;;7.97;7.73;;;;;;;8.19;66.61;91924.03;5110262;28;20184;-72
2023/04/02 01:32:13;;;;;;;8.73;8.43;;;;;;;8.38;65.28;91924.06;5112272;28;20199;-71
2023/04/02 01:34:43;;;;;;;8.57;8.27;;;;;;;8.28;65.56;91932.00;5125604;27;20228;-71
2023/04/02 01:37:35;;;;;;;7.97;7.77;;;;;;;8.17;67.96;91931.34;5111444;28;20199;-71
2023/04/02 01:40:16;;;;;;;8.43;8.13;;;;;;;8.17;68.20;91930.59;5096161;28;20227;-71
2023/04/02 01:42:51;;;;;;;8.23;7.87;;;;;;;8.02;67.72;91918.53;5093053;28;20184;-71
2023/04/02 01:45:20;;;;;;;8.13;7.83;;;;;;;8.05;66.88;91912.00;5098533;28;20240;-71
2023/04/02 01:47:46;;;;;;;8.87;8.53;;;;;;;7.96;67.96;91911.88;5110583;28;21092;-71
2023/04/02 01:50:31;;;;;;;8.77;8.47;;;;;;;8.17;66.67;91920.94;5110472;27;20220;-71
2023/04/02 01:53:14;;;;;;;8.90;8.57;;;;;;;8.24;66.06;91925.03;5110639;28;20184;-71
2023/04/02 01:55:45;;;;;;;8.30;7.90;;;;;;;8.16;66.79;91918.63;5110742;27;20218;-71
2023/04/02 01:58:13;;;;;;;8.87;8.57;;;;;;;7.98;67.91;91911.59;5110489;28;20256;-71
2023/04/02 02:00:52;;;;;;;8.83;8.43;;;;;;;8.15;67.73;91914.47;5110104;28;20266;-71
2023/04/02 02:03:18;;;;;;;8.33;8.03;;;;;;;8.22;66.97;91911.53;5110099;28;20184;-71
2023/04/02 02:05:45;;;;;;;8.13;7.67;;;;;;;8.08;66.92;91907.03;5110919;27;20283;-71
2023/04/02 02:08:30;;;;;;;8.73;8.40;;;;;;;8.02;67.53;91896.97;5109496;28;20192;-71
2023/04/02 02:10:56;;;;;;;8.83;8.33;;;;;;;8.05;67.29;91912.78;5109069;27;20233;-72
2023/04/02 02:13:22;;;;;;;8.60;8.23;;;;;;;8.04;69.16;91924.25;5110230;28;20196;-72
2023/04/02 02:15:47;;;;;;;9.00;8.43;;;;;;;7.98;67.27;91907.16;5109651;28;20241;-71
2023/04/02 02:18:18;;;;;;;8.20;7.97;;;;;;;8.16;66.73;91922.00;5110726;28;20184;-72
2023/04/02 02:20:44;;;;;;;8.23;7.93;;;;;;;8.14;66.27;91921.50;5110723;28;20226;-72
2023/04/02 02:23:11;;;;;;;8.53;8.23;;;;;;;8.16;66.73;91919.41;5112827;28;20192;-72
2023/04/02 02:25:38;;;;;;;8.37;7.97;;;;;;;8.04;67.93;91926.84;5108845;28;20227;-71
2023/04/02 02:28:10;;;;;;;8.37;8.07;;;;;;;8.05;67.45;91928.38;5108596;28;20176;-72
2023/04/02 02:30:45;;;;;;;8.70;8.10;;;;;;;8.08;67.12;91930.41;5109979;28;20223;-71
2023/04/02 02:33:16;;;;;;;9.80;9.10;;;;;;;8.16;66.64;91929.03;5106901;28;20194;-71
2023/04/02 02:35:53;;;;;;;8.13;7.77;;;;;;;8.02;67.06;91918.53;5109429;28;20223;-71
2023/04/02 02:38:22;;;;;;;8.00;7.80;;;;;;;8.06;66.76;91914.31;5109377;28;20194;-71
2023/04/02 02:40:52;;;;;;;8.40;8.10;;;;;;;8.15;65.09;91917.09;5110171;28;20238;-71
2023/04/02 02:43:18;;;;;;;8.47;8.07;;;;;;;8.08;65.36;91896.63;5108582;28;20195;-71
2023/04/02 02:45:46;;;;;;;7.50;7.30;;;;;;;8.28;65.64;91913.03;5110011;28;20241;-72
2023/04/02 02:48:17;;;;;;;7.60;7.20;;;;;;;8.20;65.87;91917.78;5110905;28;20231;-71
2023/04/02 02:50:43;;;;;;;7.73;7.53;;;;;;;8.10;66.11;91899.72;5112796;28;20228;-72
2023/04/02 02:53:21;;;;;;;8.67;8.27;;;;;;;8.25;66.59;91922.16;5089330;28;20286;-71
2023/04/02 02:55:52;;;;;;;8.23;7.93;;;;;;;8.22;64.32;91911.53;5089570;28;20307;-71
2023/04/02 02:58:22;;;;;;;9.57;9.03;;;;;;;8.26;63.48;91917.75;5089738;28;20200;-72
2023/04/02 03:00:48;;;;;;;8.87;8.47;;;;;;;8.24;64.57;91905.03;5087196;28;20244;-71
2023/04/02 03:03:18;;;;;;;8.30;8.00;;;;;;;8.24;66.00;91910.22;5089326;28;20228;-71
2023/04/02 03:05:48;;;;;;;8.63;8.33;;;;;;;8.15;65.89;91911.88;5090946;28;20232;-73
2023/04/02 03:08:27;;;;;;;9.43;9.13;;;;;;;8.13;65.58;91922.56;5089284;28;20669;-72
2023/04/02 03:11:01;;;;;;;7.93;7.67;;;;;;;8.06;65.78;91921.38;5094589;28;20252;-72
2023/04/02 03:13:34;;;;;;;8.03;7.73;;;;;;;7.88;66.18;91906.50;5099056;28;20244;-71
2023/04/02 03:16:24;;;;;;;9.03;8.73;;;;;;;8.06;65.75;91924.72;5091086;28;20243;-71
2023/04/02 03:19:00;;;;;;;7.83;7.60;;;;;;;7.86;65.79;91883.41;5087708;28;20191;-72
2023/04/02 03:21:32;;;;;;;8.87;8.57;;;;;;;8.20;65.99;91930.78;5095133;28;20246;-72
2023/04/02 03:24:04;;;;;;;8.60;8.20;;;;;;;8.17;66.37;91928.75;5103905;28;20224;-72
2023/04/02 03:26:46;;;;;;;8.90;8.50;;;;;;;8.09;67.28;91934.56;5091958;28;20234;-71
2023/04/02 03:29:18;;;;;;;8.63;8.27;;;;;;;8.03;68.20;91934.91;5092214;28;20183;-71
2023/04/02 03:31:52;;;;;;;9.13;8.60;;;;;;;8.07;67.09;91921.09;5091226;28;20248;-71
2023/04/02 03:34:32;;;;;;;8.67;8.23;;;;;;;7.97;66.99;91918.59;5092768;28;20181;-71
2023/04/02 03:37:19;;;;;;;7.97;7.67;;;;;;;8.01;68.08;91930.00;5111714;28;20233;-71
2023/04/02 03:39:56;;;;;;;8.40;8.03;;;;;;;7.84;68.78;91939.31;5111251;28;20247;-71
2023/04/02 03:42:25;;;;;;;7.97;7.67;;;;;;;7.90;68.77;91938.97;5113344;28;20283;-72
2023/04/02 03:44:59;;;;;;;7.80;7.60;;;;;;;8.03;69.09;91938.28;5111713;28;20234;-72
2023/04/02 03:47:36;;;;;;;8.90;8.60;;;;;;;7.91;68.78;91932.72;5113836;28;20183;-71
2023/04/02 03:50:19;;;;;;;8.13;7.83;;;;;;;7.93;68.63;91945.44;5112038;28;20314;-71
2023/04/02 03:52:44;;;;;;;7.80;7.50;;;;;;;7.73;68.94;91936.06;5111730;28;20195;-72
2023/04/02 03:55:32;;;;;;;8.13;7.83;;;;;;;7.68;70.19;91943.13;5112249;28;20231;-71
2023/04/02 03:58:00;;;;;;;8.70;8.40;;;;;;;7.63;70.54;91937.97;5113051;28;20221;-72
2023/04/02 04:00:50;;;;;;;7.87;7.67;;;;;;;7.71;69.36;91942.56;5112049;27;20254;-71
2023/04/02 04:03:39;;;;;;;8.23;7.70;;;;;;;7.69;69.58;91935.03;5111415;28;20192;-72
2023/04/02 04:06:15;;;;;;;8.60;8.30;;;;;;;7.83;69.37;91938.53;5101856;28;20265;-71
2023/04/02 04:09:07;;;;;;;7.60;7.30;;;;;;;8.00;68.38;91936.25;5111543;28;20186;-71
2023/04/02 04:11:36;;;;;;;9.00;8.60;;;;;;;7.99;68.43;91941.72;5111973;27;20219;-72
2023/04/02 04:14:12;;;;;;;8.33;8.03;;;;;;;8.14;72.10;91926.69;5113420;28;20201;-72
2023/04/02 04:16:52;;;;;;;7.87;7.57;;;;;;;8.15;69.98;91943.06;5112607;28;20283;-72
2023/04/02 04:19:37;;;;;;;8.43;8.13;;;;;;;8.12;68.57;91936.59;5112019;28;20183;-72
2023/04/02 04:22:14;;;;;;;8.07;7.77;;;;;;;8.01;67.94;91952.63;5127436;28;20204;-73
2023/04/02 04:24:44;;;;;;;8.10;7.80;;;;;;;8.07;67.68;91944.47;5112391;28;20228;-72
2023/04/02 04:27:32;;;;;;;8.30;8.00;;;;;;;8.17;66.70;91952.13;5112497;28;20172;-72
2023/04/02 04:30:29;;;;;;;8.80;8.50;;;;;;;8.02;67.64;91947.13;5111880;28;20235;-73
2023/04/02 04:33:21;;;;;;;8.57;8.27;;;;;;;7.95;68.75;91957.09;5099683;28;20231;-81
2023/04/02 04:35:57;;;;;;;9.33;8.97;;;;;;;7.81;69.84;91948.41;5107809;28;20244;-77
2023/04/02 04:38:39;;;;;;;7.93;7.63;;;;;;;7.99;67.91;91967.69;5111294;28;20205;-75
2023/04/02 04:41:05;;;;;;;9.40;9.00;;;;;;;7.94;68.39;91971.13;5110953;27;20239;-76
2023/04/02 04:43:40;;;;;;;8.90;8.50;;;;;;;7.79;71.57;91957.53;5110251;28;20200;-76
2023/04/02 04:46:14;;;;;;;9.87;9.23;;;;;;;7.35;76.54;91957.75;5109305;28;20232;-76
2023/04/02 04:48:59;;;;;;;9.17;8.77;;;;;;;7.11;78.18;91964.72;5111179;28;20247;-76
2023/04/02 04:51:30;;;;;;;11.03;10.53;;;;;;;6.77;79.74;91942.44;5110246;28;20224;-76
2023/04/02 04:53:56;;;;;;;9.33;8.90;;;;;;;6.66;80.92;91949.50;5110932;28;20221;-77
2023/04/02 04:56:25;;;;;;;10.93;10.37;;;;;;;6.67;81.43;91948.47;5110665;28;20292;-77
2023/04/02 04:59:04;;;;;;;9.97;9.57;;;;;;;6.40;82.93;91946.31;5112347;28;21071;-82
2023/04/02 05:01:35;;;;;;;9.77;9.37;;;;;;;6.74;82.21;91969.66;5111354;28;20246;-72
2023/04/02 05:04:03;;;;;;;10.10;9.50;;;;;;;6.46;84.00;91960.00;5111092;28;20234;-71
2023/04/02 05:06:41;;;;;;;10.13;9.53;;;;;;;6.20;86.13;91969.75;5110825;27;20295;-72
2023/04/02 05:09:19;;;;;;;10.97;10.27;;;;;;;6.30;86.30;91974.09;5109412;28;20281;-72
2023/04/02 05:11:50;;;;;;;10.33;9.73;;;;;;;6.37;86.17;91962.41;5112205;28;20273;-74
2023/04/02 05:14:28;;;;;;;10.93;10.17;;;;;;;6.52;85.51;91966.72;5111837;28;20187;-71
2023/04/02 05:17:03;;;;;;;10.63;9.93;;;;;;;6.40;86.02;91966.25;5111243;28;20191;-71
2023/04/02 05:19:40;;;;;;;11.07;10.17;;;;;;;6.36;87.06;91973.81;5110422;28;20261;-73
2023/04/02 05:22:16;;;;;;;11.80;11.00;;;;;;;6.44;86.84;91964.69;5110937;28;20208;-73
2023/04/02 05:24:54;;;;;;;10.67;10.10;;;;;;;6.97;83.82;91989.75;5111450;28;20249;-73
2023/04/02 05:27:42;;;;;;;10.93;10.30;;;;;;;7.11;82.88;91980.28;5110053;28;20195;-74
2023/04/02 05:30:11;;;;;;;10.97;10.43;;;;;;;7.16;82.37;91985.41;5109220;28;20226;-76
2023/04/02 05:32:44;;;;;;;10.07;9.57;;;;;;;6.95;82.35;91971.06;5111893;28;20229;-73
2023/04/02 05:35:19;;;;;;;10.53;10.03;;;;;;;6.98;83.01;91965.34;5111074;28;20282;-71
2023/04/02 05:37:45;;;;;;;10.43;9.93;;;;;;;7.48;79.84;91990.84;5111541;28;20184;-72
2023/04/02 05:40:20;;;;;;;10.07;9.37;;;;;;;7.50;79.97;91973.16;5109604;28;20227;-75
2023/04/02 05:42:51;;;;;;;8.63;8.03;;;;;;;7.69;78.32;91968.03;5110534;28;20689;-74
2023/04/02 05:45:34;;;;;;;11.57;11.07;;;;;;;7.87;78.89;91981.09;5108609;28;20250;-73
2023/04/02 05:48:06;;;;;;;10.97;10.27;;;;;;;7.83;80.35;91987.88;5112545;28;20211;-77
2023/04/02 05:50:39;;;;;;;9.93;9.47;;;;;;;7.86;79.67;91986.59;5109337;27;20216;-77
2023/04/02 05:53:16;;;;;;;10.93;10.43;;;;;;;8.09;77.72;92004.75;5110536;28;20215;-72
2023/04/02 05:56:10;;;;;;;10.30;9.53;;;;;;;8.46;75.49;91996.28;5109949;28;20237;-72
2023/04/02 05:58:43;;;;;;;10.13;9.63;;;;;;;8.44;77.18;92008.00;5103161;28;20203;-71
2023/04/02 06:01:34;;;;;;;10.00;9.33;;;;;;;8.58;74.97;92019.25;5109773;28;20227;-73
2023/04/02 06:04:17;;;;;;;10.23;9.70;;;;;;;8.88;73.70;92019.63;5110386;28;20248;-73
2023/04/02 06:07:02;;;;;;;9.73;9.23;;;;;;;9.09;74.67;92020.13;5109156;28;20219;-73
2023/04/02 06:09:53;;;;;;;9.70;9.20;;;;;;;8.81;73.39;92028.84;5110023;27;20251;-73
2023/04/02 06:12:25;;;;;;;8.77;8.27;;;;;;;8.90;74.28;91996.69;5110572;28;20181;-72
2023/04/02 06:14:51;;;;;;;8.93;8.53;;;;;;;9.08;74.24;92029.75;5109554;27;20258;-73
2023/04/02 06:17:19;;;;;;;9.83;9.33;;;;;;;9.09;72.82;92031.28;5110180;28;20203;-73
2023/04/02 06:19:46;;;;;;;9.57;9.03;;;;;;;9.25;72.77;92017.00;5109709;27;20232;-73
2023/04/02 06:22:40;;;;;;;9.20;8.80;;;;;;;9.33;72.85;92023.38;5111038;28;20246;-70
2023/04/02 06:25:16;;;;;;;9.17;8.73;;;;;;;9.22;73.06;92024.59;5106726;28;20236;-72
2023/04/02 06:27:45;;;;;;;10.73;9.60;;;;;;;9.23;74.19;92026.16;5110554;28;20192;-74
2023/04/02 06:30:34;;;;;;;10.03;9.53;;;;;;;9.62;71.29;92029.13;5107003;28;20223;-74
2023/04/02 06:32:59;;;;;;;9.43;8.67;;;;;;;9.65;70.74;92024.13;5109286;28;20218;-73
2023/04/02 06:35:25;;;;;;;9.00;8.50;;;;;;;9.65;70.93;92018.13;5110221;27;20232;-79
2023/04/02 06:37:54;;;;;;;9.83;9.17;;;;;;;9.32;74.38;92029.66;5108296;28;20193;-75
2023/04/02 06:40:26;;;;;;;9.00;8.53;;;;;;;9.90;71.71;92025.53;5107869;28;20230;-76
2023/04/02 06:42:58;;;;;;;9.20;8.80;;;;;;;9.73;72.89;92020.88;5110625;28;20190;-75
2023/04/02 06:45:29;;;;;;;9.87;9.27;;;;;;;9.60;71.74;92028.66;5109025;28;20315;-78
2023/04/02 06:47:58;;;;;;;9.97;9.47;;;;;;;9.60;73.26;92033.88;5109018;28;20211;-74
2023/04/02 06:50:55;;;;;;;10.47;9.73;;;;;;;9.32;72.14;91993.94;5109609;28;20227;-73
2023/04/02 06:53:33;;;;;;;14.13;13.33;;;;;;;9.89;73.16;92031.81;5092567;28;20207;-71
2023/04/02 06:56:36;;;;;;;10.90;10.30;;;;;;;9.58;71.08;92036.00;5094405;28;20231;-70
2023/04/02 06:59:03;;;;;;;11.03;10.43;;;;;;;10.03;73.59;92034.41;5090285;28;20187;-82
2023/04/02 07:01:37;;;;;;;10.70;10.00;;;;;;;10.36;70.12;92038.53;5089016;28;20305;-72
2023/04/02 07:04:03;;;;;;;11.10;10.50;;;;;;;10.28;71.15;92047.03;5089149;28;20190;-71
2023/04/02 07:06:28;;;;;;;10.07;9.57;;;;;;;10.29;70.96;92038.16;5093411;28;20312;-72
2023/04/02 07:08:54;;;;;;;11.03;10.23;;;;;;;10.67;70.75;92044.69;5097682;28;20198;-73
2023/04/02 07:11:21;;;;;;;10.77;9.87;;;;;;;10.42;70.39;92022.50;5085984;28;20216;-74
2023/04/02 07:13:47;;;;;;;10.80;10.00;;;;;;;10.68;70.35;92049.63;5084118;28;20195;-72
2023/04/02 07:16:21;;;;;;;9.90;9.50;;;;;;;10.64;66.19;92048.66;5094599;28;20305;-75
2023/04/02 07:18:48;;;;;;;10.53;9.77;;;;;;;10.97;68.12;92063.09;5098321;28;20188;-72
2023/04/02 07:21:13;;;;;;;11.50;10.53;;;;;;;11.00;67.85;92049.44;5087538;28;20230;-73
2023/04/02 07:23:39;;;;;;;10.70;10.10;;;;;;;11.11;65.84;92065.69;5086225;28;20186;-74
2023/04/02 07:26:06;;;;;;;10.23;9.53;;;;;;;10.69;64.50;92069.44;5090709;28;20246;-71
2023/04/02 07:28:32;;;;;;;9.17;8.87;;;;;;;10.86;61.26;92074.81;5096531;28;20184;-71
2023/04/02 07:30:58;;;;;;;8.57;8.17;;;;;;;10.90;61.22;92070.56;5089169;28;20232;-71
2023/04/02 07:33:26;;;;;;;8.33;8.03;;;;;;;11.22;61.73;92062.56;5085272;28;20193;-72
2023/04/02 07:35:53;;;;;;;8.40;8.10;;;;;;;11.33;60.32;92058.66;5095689;28;20238;-70
2023/04/02 07:38:18;;;;;;;8.87;8.53;;;;;;;11.29;57.50;92076.00;5123434;28;20187;-71
2023/04/02 07:40:44;;;;;;;8.50;8.20;;;;;;;11.56;60.20;92074.34;5108045;28;20263;-73
2023/04/02 07:43:09;;;;;;;10.00;9.13;;;;;;;11.65;56.30;92085.66;5107648;28;20185;-72
2023/04/02 07:45:35;;;;;;;9.80;9.37;;;;;;;11.28;56.34;92071.81;5106618;28;20242;-72
2023/04/02 07:48:05;;;;;;;9.43;9.03;;;;;;;11.44;57.12;92074.13;5105190;28;20188;-73
2023/04/02 07:50:31;;;;;;;9.57;9.13;;;;;;;11.46;57.26;92077.19;5104570;28;20240;-73
2023/04/02 07:52:56;;;;;;;9.33;8.93;;;;;;;11.21;57.09;92074.09;5103839;28;20196;-73
2023/04/02 07:55:22;;;;;;;9.67;8.90;;;;;;;11.53;57.92;92067.09;5107990;28;20228;-73
2023/04/02 07:58:00;;;;;;;9.03;8.63;;;;;;;11.84;59.59;92076.59;5107466;28;20219;-71
2023/04/02 08:00:27;;;;;;;8.43;8.03;;;;;;;11.81;55.77;92079.00;5108299;28;21057;-70
2023/04/02 08:02:52;;;;;;;9.67;9.13;;;;;;;11.78;57.23;92074.38;5108156;28;20266;-70
2023/04/02 08:05:18;;;;;;;9.70;9.30;;;;;;;11.64;55.61;92043.09;5108673;28;20224;-72
2023/04/02 08:07:50;;;;;;;8.33;8.03;;;;;;;11.77;55.13;92083.28;5107900;28;20196;-70
2023/04/02 08:10:17;;;;;;;10.23;9.77;;;;;;;11.87;54.63;92083.03;5109619;28;20322;-69
2023/04/02 08:12:43;;;;;;;8.73;8.43;;;;;;;12.10;53.88;92087.19;5112260;28;20197;-72
2023/04/02 08:15:12;;;;;;;9.23;8.77;;;;;;;12.22;53.92;92075.09;5110600;28;20228;-74
2023/04/02 08:17:38;;;;;;;9.03;8.67;;;;;;;12.15;54.20;92084.44;5109534;28;20163;-75
2023/04/02 08:20:05;;;;;;;9.00;8.70;;;;;;;12.42;51.35;92099.97;5109382;28;20272;-74
2023/04/02 08:22:30;;;;;;;8.70;8.40;;;;;;;12.38;51.76;92093.78;5110559;28;20202;-74
2023/04/02 08:24:56;;;;;;;9.33;8.93;;;;;;;12.62;52.48;92102.81;5111624;28;20312;-75
2023/04/02 08:27:25;;;;;;;9.40;9.00;;;;;;;12.83;53.12;92095.97;5111129;28;20192;-75
2023/04/02 08:29:51;;;;;;;9.27;8.77;;;;;;;13.22;53.38;92100.41;5108739;28;20224;-73
2023/04/02 08:32:16;;;;;;;9.20;8.80;;;;;;;13.31;53.68;92090.69;5110347;28;20274;-73
2023/04/02 08:34:43;;;;;;;9.13;8.77;;;;;;;13.20;49.99;92099.91;5109994;28;20216;-73
2023/04/02 08:37:11;;;;;;;9.40;8.73;;;;;;;12.93;52.31;92084.44;5110745;28;20180;-73
2023/04/02 08:39:36;;;;;;;9.17;8.67;;;;;;;12.90;49.90;92090.28;5110293;28;20326;-73
2023/04/02 08:42:11;;;;;;;9.13;8.63;;;;;;;13.61;49.41;92109.97;5111313;28;20207;-73
2023/04/02 08:44:55;;;;;;;8.63;8.23;;;;;;;13.26;52.91;92113.66;5110989;28;20302;-73
2023/04/02 08:47:24;;;;;;;9.47;8.97;;;;;;;13.50;50.46;92109.53;5110710;28;20875;-74
2023/04/02 08:49:57;;;;;;;8.87;8.47;;;;;;;13.45;50.26;92112.28;5111482;28;20250;-73
2023/04/02 08:52:31;;;;;;;9.00;8.60;;;;;;;13.24;49.95;92105.31;5106575;28;20245;-73
2023/04/02 08:54:59;;;;;;;9.03;8.63;;;;;;;13.33;49.62;92109.50;5110800;28;20242;-74
2023/04/02 08:57:30;;;;;;;9.53;8.87;;;;;;;13.33;48.79;92106.88;5109489;28;20177;-72
2023/04/02 09:00:04;;;;;;;9.13;8.77;;;;;;;12.95;47.04;92108.47;5108136;28;20216;-73
2023/04/02 09:02:46;;;;;;;9.53;9.13;;;;;;;12.66;49.42;92100.38;5111667;28;20186;-73
2023/04/02 09:05:20;;;;;;;8.97;8.47;;;;;;;12.18;48.77;92100.31;5110087;28;20666;-72
2023/04/02 09:07:48;;;;;;;9.30;8.63;;;;;;;12.42;48.82;92086.91;5111701;28;20247;-72
2023/04/02 09:10:18;;;;;;;8.50;8.13;;;;;;;13.27;50.99;92105.50;5109754;28;20219;-72
2023/04/02 09:12:50;;;;;;;9.30;8.73;;;;;;;13.55;47.30;92085.78;5111522;28;20247;-71
2023/04/02 09:15:23;;;;;;;8.87;8.27;;;;;;;13.95;48.06;92100.25;5111260;28;20216;-73
2023/04/02 09:17:59;;;;;;;9.10;8.70;;;;;;;13.95;48.20;92094.22;5108380;28;20895;-71
2023/04/02 09:20:26;;;;;;;10.20;9.70;;;;;;;12.92;47.59;92091.53;5111231;28;20225;-72
2023/04/02 09:22:54;;;;;;;11.30;10.70;;;;;;;12.62;49.53;92104.69;5109829;28;20278;-73
2023/04/02 09:25:30;;;;;;;9.07;8.70;;;;;;;12.80;49.00;92091.34;5109686;28;20295;-72
2023/04/02 09:27:59;;;;;;;9.40;8.90;;;;;;;12.93;47.26;92102.78;5108651;28;20184;-71
2023/04/02 09:30:28;;;;;;;8.80;8.50;;;;;;;13.06;43.22;92096.66;5111537;28;20644;-71
2023/04/02 09:32:58;;;;;;;8.63;8.33;;;;;;;13.98;45.19;92086.50;5108746;28;20199;-69
2023/04/02 09:35:26;;;;;;;8.27;7.97;;;;;;;14.14;44.44;92092.81;5109216;28;20231;-69
2023/04/02 09:38:16;;;;;;;8.67;8.27;;;;;;;14.15;44.24;92083.84;5110132;28;20196;-68
2023/04/02 09:40:48;;;;;;;8.17;7.87;;;;;;;13.46;46.15;92087.63;5108854;28;20262;-69
2023/04/02 09:43:18;;;;;;;8.47;8.07;;;;;;;13.98;44.34;92089.13;5111645;28;20251;-69
2023/04/02 09:45:58;;;;;;;8.90;8.40;;;;;;;14.19;43.55;92069.00;5110394;28;20308;-69
2023/04/02 09:48:32;;;;;;;8.73;8.43;;;;;;;14.12;47.40;92076.59;5109443;28;20194;-72
2023/04/02 09:51:25;;;;;;;8.87;8.57;;;;;;;13.80;44.76;92079.75;5109692;28;20228;-69
2023/04/02 09:54:08;;;;;;;9.17;8.77;;;;;;;14.23;44.78;92069.94;5110613;28;20199;-70
2023/04/02 09:56:36;;;;;;;7.87;7.53;;;;;;;13.37;45.84;92071.09;5110237;28;20220;-68
2023/04/02 09:59:15;;;;;;;9.77;9.30;;;;;;;13.71;45.17;92073.72;5108429;28;20180;-71
2023/04/02 10:02:03;;;;;;;9.33;8.97;;;;;;;13.95;42.08;92071.38;5111915;28;20855;-67
2023/04/02 10:04:43;;;;;;;8.13;7.83;;;;;;;14.10;42.24;92054.38;5110415;28;20180;-71
2023/04/02 10:07:47;;;;;;;9.00;8.60;;;;;;;14.11;42.30;92074.28;5111060;28;20251;-68
2023/04/02 10:10:50;;;;;;;7.70;7.40;;;;;;;13.72;44.61;92080.53;5108803;28;20233;-67
2023/04/02 10:13:47;;;;;;;8.73;8.20;;;;;;;14.22;45.72;92068.41;5009752;28;20214;-67
2023/04/02 10:16:18;;;;;;;7.97;7.67;;;;;;;14.32;44.72;92073.34;5108929;28;20266;-67
2023/04/02 10:18:59;;;;;;;7.60;7.30;;;;;;;14.17;43.20;92070.41;5111645;28;20186;-67
2023/04/02 10:21:32;;;;;;;8.20;7.80;;;;;;;14.91;41.57;92062.91;5109573;28;20227;-68
2023/04/02 10:23:58;;;;;;;8.60;8.30;;;;;;;14.36;42.64;92058.50;5113064;28;20202;-68
2023/04/02 10:26:37;;;;;;;8.47;8.07;;;;;;;14.14;43.26;92061.31;5108350;28;20220;-68
2023/04/02 10:29:21;;;;;;;8.47;8.17;;;;;;;14.15;43.00;92068.09;5107133;28;20195;-69
2023/04/02 10:31:47;;;;;;;8.57;8.27;;;;;;;13.96;43.10;92065.03;5107040;28;20215;-68
2023/04/02 10:34:39;;;;;;;8.87;8.53;;;;;;;13.50;43.89;92051.06;5109275;28;20191;-68
2023/04/02 10:37:20;;;;;;;8.50;8.20;;;;;;;13.71;44.93;92072.97;5110429;28;20223;-68
2023/04/02 10:40:09;;;;;;;8.43;8.00;;;;;;;13.98;42.91;92068.13;5109624;28;20224;-68
2023/04/02 10:42:50;;;;;;;8.87;8.27;;;;;;;14.00;44.39;92071.22;5105045;28;20198;-65
2023/04/02 10:45:32;;;;;;;8.87;8.57;;;;;;;14.03;43.89;92061.94;5109711;28;20235;-66
2023/04/02 10:48:26;;;;;;;8.03;7.73;;;;;;;14.17;43.58;92065.16;5112605;28;20220;-66
2023/04/02 10:51:23;;;;;;;8.23;7.93;;;;;;;14.07;43.83;92063.63;5108145;28;20242;-65
2023/04/02 10:53:48;;;;;;;8.33;8.03;;;;;;;14.06;44.59;92058.69;5108097;28;20184;-67
2023/04/02 10:56:14;;;;;;;8.87;8.50;;;;;;;14.05;43.51;92052.69;5109540;28;22337;-66
2023/04/02 10:58:59;;;;;;;8.40;8.10;;;;;;;14.36;42.44;92055.88;5109724;28;20200;-66
2023/04/02 11:01:28;;;;;;;8.27;7.97;;;;;;;14.20;41.05;92054.81;5107197;28;20220;-66
2023/04/02 11:04:12;;;;;;;9.23;8.53;;;;;;;14.29;40.76;92049.53;5110382;28;20196;-68
2023/04/02 11:06:46;;;;;;;8.00;7.70;;;;;;;14.36;41.17;92029.63;5108661;28;20706;-68
2023/04/02 11:09:20;;;;;;;7.07;6.87;;;;;;;14.45;42.13;92040.84;5111625;28;20192;-68
2023/04/02 11:11:50;;;;;;;8.27;7.87;;;;;;;14.26;46.83;92053.59;5107960;28;20216;-69
2023/04/02 11:14:15;;;;;;;8.00;7.70;;;;;;;13.92;47.71;92060.72;5107868;28;20187;-73
2023/04/02 11:16:41;;;;;;;8.83;8.33;;;;;;;13.84;48.57;92049.19;5108872;28;20188;-73
2023/04/02 11:19:13;;;;;;;9.60;9.20;;;;;;;14.25;48.50;92057.31;5108672;28;20255;-72
2023/04/02 11:21:42;;;;;;;8.47;8.10;;;;;;;13.97;47.52;92050.06;5107935;28;20223;-72
2023/04/02 11:24:31;;;;;;;8.97;8.53;;;;;;;15.03;47.40;92049.84;5117052;28;20234;-72
2023/04/02 11:27:09;;;;;;;8.07;7.77;;;;;;;15.20;47.30;92060.25;5075225;28;20228;-73
2023/04/02 11:30:14;;;;;;;8.80;8.50;;;;;;;15.28;47.01;92051.53;5090977;28;20253;-73
2023/04/02 11:32:42;;;;;;;8.13;7.80;;;;;;;14.31;48.26;92050.78;5090154;28;20184;-72
2023/04/02 11:35:30;;;;;;;7.93;7.63;;;;;;;14.25;49.78;92041.56;5107946;27;20219;-72
2023/04/02 11:37:58;;;;;;;8.93;8.53;;;;;;;14.35;48.31;92050.91;5107651;28;20231;-73
2023/04/02 11:40:49;;;;;;;8.90;8.50;;;;;;;14.47;47.72;92035.28;5108162;28;20231;-73
2023/04/02 11:43:33;;;;;;;9.90;9.53;;;;;;;13.91;49.44;92049.47;5109728;28;20424;-73
2023/04/02 11:46:17;;;;;;;8.40;8.10;;;;;;;13.88;49.73;92036.22;5111848;28;20231;-73
2023/04/02 11:48:43;;;;;;;8.83;8.43;;;;;;;13.92;48.56;92030.03;5113038;28;20192;-73
2023/04/02 11:51:23;;;;;;;8.47;8.17;;;;;;;13.73;49.62;92047.94;5112301;27;20697;-73
2023/04/02 11:53:52;;;;;;;8.97;8.57;;;;;;;13.66;49.36;92024.06;5112467;28;20259;-73
2023/04/02 11:56:33;;;;;;;9.00;8.40;;;;;;;14.11;49.56;92034.91;5112895;28;20288;-73
2023/04/02 11:59:20;;;;;;;9.07;8.67;;;;;;;14.23;47.32;92038.44;5111568;28;20214;-73
2023/04/02 12:02:26;;;;;;;7.80;7.53;;;;;;;14.60;48.58;92036.91;5110729;28;20318;-73
2023/04/02 12:05:13;;;;;;;7.93;7.53;;;;;;;14.68;46.96;92027.47;5112590;28;20235;-73
2023/04/02 12:07:45;;;;;;;8.63;8.20;;;;;;;14.48;47.88;92032.34;5110944;28;20226;-73
2023/04/02 12:10:31;;;;;;;8.97;8.67;;;;;;;14.44;47.32;92028.03;5111805;27;20315;-73
2023/04/02 12:12:57;;;;;;;8.00;7.70;;;;;;;14.32;47.70;92020.81;5111561;28;20258;-73